< Cyclone 200403 2004 Season Cyclone 200405 >
Cyclone 200404 (FRITZ)
General InformationDetailed Track InformationTrack Information on Google MapsList of All Images || ResourceGoogle EarthGE AnimationAtom FeedGeoJSON
Detalied Best Track Wind (Time Zone = UTC)
Year Month Day Hour Lat. Long. Wind (kt) Gust (kt) Direc. of Major Storm Axis Radius of Major Storm Axis (nm) Radius of Minor Storm Axis (nm) Direc. of Major Gale Axis Radius of Major Gale Axis (nm) Radius of Minor Gale Axis (nm) Image
2004 2 10 06 -13.7 146.7 30 -1 symmetric - - symmetric - - Image
2004 2 10 12 -14.2 145.4 35 -1 symmetric - - symmetric - - Image
2004 2 10 18 -14.5 144.3 30 -1 symmetric - - symmetric - - Image
2004 2 11 00 -15.4 143.4 25 -1 symmetric - - symmetric - - Image
2004 2 11 06 -16.1 142.4 25 -1 symmetric - - symmetric - - Image
2004 2 11 12 -16.3 141.3 25 -1 symmetric - - symmetric - - Image
2004 2 11 18 -16.5 140.6 40 -1 symmetric - - symmetric - - Image
2004 2 12 00 -16.6 139.7 49 -1 symmetric - - symmetric - - Image
2004 2 12 06 -16.3 138.9 40 -1 symmetric - - symmetric - - Image
2004 2 12 12 -16.6 138.8 40 -1 symmetric - - symmetric - - Image
2004 2 12 18 -16.9 137.3 30 -1 symmetric - - symmetric - - Image
2004 2 13 00 -17.0 136.3 25 -1 symmetric - - symmetric - - Image
2004 2 13 06 -17.5 135.6 25 -1 symmetric - - symmetric - - Image
2004 2 13 12 -17.9 134.1 25 -1 symmetric - - symmetric - - Image
2004 2 13 18 -18.3 132.5 25 -1 symmetric - - symmetric - - Image
2004 2 14 00 -19.0 131.3 25 -1 symmetric - - symmetric - - Image
2004 2 14 06 -19.6 130.1 25 -1 symmetric - - symmetric - - Image
2004 2 14 12 -19.7 128.9 25 -1 symmetric - - symmetric - - Image
2004 2 14 18 -20.3 127.7 20 -1 symmetric - - symmetric - - Image
2004 2 15 00 -21.1 126.3 20 -1 symmetric - - symmetric - - Image
< Cyclone 200403 2004 Season Cyclone 200405 >

Help